Time;durP1;ratioP1;P1;durP2;ratioP2;P2;SDS_P1;SDS_P2;PMS_P1;PMS_P2;Temp;Humidity;BMP_temperature;BMP_pressure;BME280_temperature;BME280_humidity;BME280_pressure;Samples;Min_cycle;Max_cycle;Signal;HPM_P1;HPM_P2
2022/10/29 00:01:47;;;;;;;15.95;6.85;;;16.50;99.90;;;;;;5074834;28;20028;-70
2022/10/29 00:04:13;;;;;;;13.95;6.75;;;16.50;99.90;;;;;;5075310;28;20029;-69
2022/10/29 00:06:39;;;;;;;16.58;6.97;;;16.50;99.90;;;;;;5074965;28;20620;-69
2022/10/29 00:09:05;;;;;;;16.30;6.82;;;16.70;99.90;;;;;;5074634;28;20065;-69
2022/10/29 00:11:31;;;;;;;18.05;7.68;;;16.80;99.90;;;;;;5074478;28;20031;-69
2022/10/29 00:14:00;;;;;;;21.40;7.05;;;16.70;99.90;;;;;;5073503;28;20021;-69
2022/10/29 00:16:33;;;;;;;20.80;8.40;;;16.70;99.90;;;;;;5074029;28;20044;-69
2022/10/29 00:18:59;;;;;;;21.75;8.52;;;16.80;99.90;;;;;;5074329;28;20025;-69
2022/10/29 00:21:25;;;;;;;24.98;7.90;;;16.80;99.90;;;;;;5073909;28;20021;-69
2022/10/29 00:23:52;;;;;;;15.88;7.57;;;16.60;99.90;;;;;;5074555;28;20028;-69
2022/10/29 00:26:20;;;;;;;16.67;7.68;;;16.40;99.90;;;;;;5074155;28;20032;-69
2022/10/29 00:28:46;;;;;;;19.10;7.95;;;16.40;99.90;;;;;;5074504;28;20072;-69
2022/10/29 00:31:15;;;;;;;16.90;7.75;;;16.60;99.90;;;;;;5074319;28;20032;-70
2022/10/29 00:33:41;;;;;;;17.15;7.78;;;16.70;99.90;;;;;;5073204;28;20032;-69
2022/10/29 00:36:13;;;;;;;15.10;7.53;;;16.70;99.90;;;;;;5073791;28;20045;-70
2022/10/29 00:38:39;;;;;;;15.25;8.32;;;16.60;99.90;;;;;;5073255;28;20028;-71
2022/10/29 00:41:07;;;;;;;16.77;7.10;;;16.60;99.90;;;;;;5073502;28;20047;-69
2022/10/29 00:43:35;;;;;;;18.40;8.27;;;16.60;99.90;;;;;;5073926;28;20417;-70
2022/10/29 00:46:11;;;;;;;19.95;8.07;;;16.50;99.90;;;;;;5074299;28;20029;-69
2022/10/29 00:48:46;;;;;;;16.60;7.28;;;16.40;99.90;;;;;;5074198;28;20025;-69
2022/10/29 00:51:14;;;;;;;15.50;7.32;;;16.50;99.90;;;;;;5073960;28;20400;-69
2022/10/29 00:53:47;;;;;;;19.88;7.53;;;16.50;99.90;;;;;;5074249;28;20028;-70
2022/10/29 00:56:15;;;;;;;18.58;7.70;;;16.50;99.90;;;;;;5074293;28;20040;-69
2022/10/29 00:58:41;;;;;;;18.35;7.20;;;16.50;99.90;;;;;;5073885;28;20020;-69
2022/10/29 01:01:07;;;;;;;20.35;8.35;;;16.40;99.90;;;;;;5073448;28;20074;-69
2022/10/29 01:03:33;;;;;;;16.00;7.93;;;16.30;99.90;;;;;;5073816;28;20020;-69
2022/10/29 01:06:00;;;;;;;15.30;7.85;;;16.30;99.90;;;;;;5074307;28;20111;-69
2022/10/29 01:08:26;;;;;;;13.63;6.85;;;16.20;99.90;;;;;;5063496;28;20496;-69
2022/10/29 01:11:31;;;;;;;18.00;8.00;;;16.20;99.90;;;;;;5068893;28;20029;-69
2022/10/29 01:14:08;;;;;;;16.20;8.07;;;16.20;99.90;;;;;;5073812;28;20090;-69
2022/10/29 01:16:51;;;;;;;18.58;7.95;;;16.40;99.90;;;;;;5073708;28;20072;-69
2022/10/29 01:19:29;;;;;;;19.45;7.10;;;16.30;99.90;;;;;;5072629;28;20107;-69
2022/10/29 01:22:23;;;;;;;15.23;7.35;;;16.20;99.90;;;;;;5073383;28;20135;-69
2022/10/29 01:24:49;;;;;;;17.30;7.75;;;16.10;99.90;;;;;;5073130;28;20028;-70
2022/10/29 01:27:52;;;;;;;22.60;7.80;;;16.00;99.90;;;;;;5055912;28;20021;-69
2022/10/29 01:30:21;;;;;;;12.57;7.03;;;16.00;99.90;;;;;;5053033;28;20131;-69
2022/10/29 01:32:57;;;;;;;21.08;7.55;;;16.10;99.90;;;;;;5053279;28;20064;-70
2022/10/29 01:35:41;;;;;;;20.50;7.63;;;16.10;99.90;;;;;;5051625;28;20037;-69
2022/10/29 01:38:13;;;;;;;20.27;8.30;;;16.20;99.90;;;;;;5051004;28;20037;-69
2022/10/29 01:40:59;;;;;;;22.48;7.55;;;16.20;99.90;;;;;;5053174;28;20462;-69
2022/10/29 01:43:40;;;;;;;14.93;7.18;;;16.20;99.90;;;;;;5051754;28;20035;-69
2022/10/29 01:46:18;;;;;;;26.23;7.47;;;16.10;99.90;;;;;;5053255;28;20108;-69
2022/10/29 01:48:47;;;;;;;24.30;7.72;;;15.90;99.90;;;;;;5051535;28;20039;-69
2022/10/29 01:51:19;;;;;;;15.93;7.25;;;15.90;99.90;;;;;;5053151;28;20028;-69
2022/10/29 01:53:45;;;;;;;16.73;7.70;;;15.90;99.90;;;;;;5052809;28;20036;-69
2022/10/29 01:56:11;;;;;;;23.45;8.13;;;15.90;99.90;;;;;;5052830;28;20037;-69
2022/10/29 01:58:40;;;;;;;16.70;7.18;;;15.70;99.90;;;;;;5051613;28;20381;-69
2022/10/29 02:01:24;;;;;;;26.05;6.97;;;15.60;99.90;;;;;;5052548;28;20091;-70
2022/10/29 02:04:15;;;;;;;18.48;7.05;;;15.70;99.90;;;;;;5052103;28;20513;-69
2022/10/29 02:07:17;;;;;;;14.70;7.22;;;15.60;99.90;;;;;;5052410;28;20124;-69
2022/10/29 02:10:17;;;;;;;25.63;7.43;;;15.70;99.90;;;;;;5041559;28;20021;-69
2022/10/29 02:12:51;;;;;;;21.48;7.85;;;15.80;99.90;;;;;;5052746;28;20025;-69
2022/10/29 02:15:29;;;;;;;14.40;6.45;;;15.80;99.90;;;;;;5052559;28;20094;-69
2022/10/29 02:17:59;;;;;;;22.63;7.05;;;15.60;99.90;;;;;;5051852;28;20033;-69
2022/10/29 02:20:25;;;;;;;21.13;7.60;;;15.40;99.90;;;;;;5052325;28;20029;-69
2022/10/29 02:22:51;;;;;;;21.17;7.05;;;15.50;99.90;;;;;;5052433;28;20112;-69
2022/10/29 02:25:17;;;;;;;22.95;8.00;;;15.60;99.90;;;;;;5052549;28;20699;-69
2022/10/29 02:27:43;;;;;;;29.42;8.25;;;15.70;99.90;;;;;;5052303;28;20448;-69
2022/10/29 02:30:09;;;;;;;26.77;6.95;;;15.80;99.90;;;;;;5052169;28;20473;-69
2022/10/29 02:32:35;;;;;;;21.23;7.07;;;15.90;99.90;;;;;;5051676;28;20021;-69
2022/10/29 02:35:00;;;;;;;17.15;7.28;;;15.90;99.90;;;;;;5052105;28;20503;-69
2022/10/29 02:37:27;;;;;;;27.08;8.75;;;16.00;99.90;;;;;;5050833;28;20098;-69
2022/10/29 02:39:52;;;;;;;29.67;8.07;;;15.90;99.90;;;;;;5051926;28;20048;-69
2022/10/29 02:42:18;;;;;;;22.77;8.35;;;15.70;99.90;;;;;;5052186;28;20465;-69
2022/10/29 02:44:44;;;;;;;26.92;9.77;;;15.70;99.90;;;;;;5051955;28;20477;-69
2022/10/29 02:47:10;;;;;;;25.88;10.43;;;15.80;99.90;;;;;;5051586;28;20389;-69
2022/10/29 02:49:35;;;;;;;35.20;11.27;;;15.90;99.90;;;;;;5034106;28;20116;-69
2022/10/29 02:52:01;;;;;;;32.03;11.27;;;15.90;99.90;;;;;;5052433;28;20116;-69
2022/10/29 02:54:27;;;;;;;25.05;11.57;;;15.90;99.90;;;;;;5052667;28;20032;-69
2022/10/29 02:56:52;;;;;;;29.60;11.10;;;15.80;99.90;;;;;;5050801;28;20520;-69
2022/10/29 02:59:18;;;;;;;27.48;11.95;;;15.80;99.90;;;;;;5052297;28;20025;-69
2022/10/29 03:01:44;;;;;;;28.02;11.07;;;15.90;99.90;;;;;;5051609;28;20386;-69
2022/10/29 03:04:10;;;;;;;28.33;10.90;;;16.00;99.90;;;;;;5052273;28;20033;-69
2022/10/29 03:06:36;;;;;;;27.08;10.30;;;15.90;99.90;;;;;;5051982;28;20542;-69
2022/10/29 03:09:03;;;;;;;28.95;11.10;;;15.90;99.90;;;;;;5052221;28;20021;-69
2022/10/29 03:11:29;;;;;;;27.30;10.35;;;16.10;99.90;;;;;;5052299;28;20474;-69
2022/10/29 03:13:55;;;;;;;28.55;9.88;;;16.10;99.90;;;;;;5051035;28;20025;-69
2022/10/29 03:16:20;;;;;;;29.00;10.55;;;16.10;99.90;;;;;;5051562;28;20051;-69
2022/10/29 03:18:46;;;;;;;27.52;10.80;;;16.20;99.90;;;;;;5053218;28;20025;-69
2022/10/29 03:21:12;;;;;;;27.60;10.40;;;16.30;99.90;;;;;;5055427;28;20033;-70
2022/10/29 03:23:37;;;;;;;26.60;11.15;;;16.30;99.90;;;;;;5054546;28;20452;-69
2022/10/29 03:26:03;;;;;;;23.50;10.30;;;16.30;99.90;;;;;;5054137;28;20032;-69
2022/10/29 03:28:29;;;;;;;22.60;10.35;;;16.20;99.90;;;;;;5055466;28;20052;-69
2022/10/29 03:30:56;;;;;;;30.65;9.95;;;16.10;99.90;;;;;;5054692;28;20025;-69
2022/10/29 03:33:24;;;;;;;27.90;11.27;;;16.00;99.90;;;;;;5055254;28;20068;-70
2022/10/29 03:35:58;;;;;;;24.08;9.93;;;15.90;99.90;;;;;;5053842;28;20095;-69
2022/10/29 03:38:25;;;;;;;25.10;9.13;;;16.00;99.90;;;;;;5054430;28;20035;-71
2022/10/29 03:40:50;;;;;;;32.63;9.63;;;15.90;99.90;;;;;;5055500;28;20439;-69
2022/10/29 03:43:16;;;;;;;31.25;9.57;;;15.90;99.90;;;;;;5055048;28;20017;-69
2022/10/29 03:45:42;;;;;;;28.45;9.43;;;16.10;99.90;;;;;;5055588;28;20104;-69
2022/10/29 03:48:08;;;;;;;26.08;9.43;;;16.00;99.90;;;;;;5054733;28;20112;-70
2022/10/29 03:50:35;;;;;;;33.60;9.55;;;16.00;99.90;;;;;;5055236;28;20116;-69
2022/10/29 03:53:01;;;;;;;30.50;9.77;;;16.10;99.90;;;;;;5053624;28;20108;-70
2022/10/29 03:55:28;;;;;;;22.13;9.60;;;16.20;99.90;;;;;;5055463;28;20514;-69
2022/10/29 03:57:55;;;;;;;26.55;8.15;;;16.20;99.90;;;;;;5055680;28;20033;-70
2022/10/29 04:00:20;;;;;;;28.27;8.20;;;16.20;99.90;;;;;;5055325;28;20086;-70
2022/10/29 04:02:46;;;;;;;19.52;8.30;;;16.30;99.90;;;;;;5053877;28;20029;-70
2022/10/29 04:05:12;;;;;;;25.83;8.52;;;16.30;99.90;;;;;;5054608;28;20239;-70
2022/10/29 04:07:38;;;;;;;30.20;8.70;;;16.30;99.90;;;;;;5055118;28;20032;-70
2022/10/29 04:10:04;;;;;;;27.13;7.93;;;16.30;99.90;;;;;;5054939;28;20025;-69
2022/10/29 04:12:29;;;;;;;20.20;7.43;;;16.30;99.90;;;;;;5054340;28;20029;-69
2022/10/29 04:14:55;;;;;;;20.90;8.75;;;16.30;99.90;;;;;;5054688;28;20063;-69
2022/10/29 04:17:21;;;;;;;20.73;7.53;;;16.30;99.90;;;;;;5054144;28;20033;-69
2022/10/29 04:19:47;;;;;;;22.25;8.07;;;16.50;99.90;;;;;;5054359;28;20029;-69
2022/10/29 04:22:12;;;;;;;24.60;8.45;;;16.40;99.90;;;;;;5054292;28;20029;-69
2022/10/29 04:24:38;;;;;;;14.80;7.15;;;16.30;99.90;;;;;;5054685;28;20051;-69
2022/10/29 04:27:04;;;;;;;18.83;7.32;;;16.20;99.90;;;;;;5053572;28;20025;-70
2022/10/29 04:29:29;;;;;;;22.85;7.45;;;16.00;99.90;;;;;;5054223;28;20079;-69
2022/10/29 04:31:55;;;;;;;23.55;7.47;;;16.00;99.90;;;;;;5054074;28;20025;-69
2022/10/29 04:34:21;;;;;;;26.65;8.02;;;16.00;99.90;;;;;;5054299;28;20017;-69
2022/10/29 04:36:47;;;;;;;23.70;6.93;;;16.10;99.90;;;;;;5054317;28;20045;-69
2022/10/29 04:39:12;;;;;;;23.60;7.28;;;16.10;99.90;;;;;;5053466;28;20017;-69
2022/10/29 04:41:38;;;;;;;16.70;6.40;;;16.00;99.90;;;;;;5054031;28;20040;-69
2022/10/29 04:44:04;;;;;;;24.95;7.57;;;15.90;99.90;;;;;;5054429;28;20033;-69
2022/10/29 04:46:30;;;;;;;16.90;6.38;;;15.90;99.90;;;;;;5052914;28;20037;-69
2022/10/29 04:48:55;;;;;;;29.23;6.05;;;15.90;99.90;;;;;;5053958;28;20079;-69
2022/10/29 04:51:24;;;;;;;32.03;6.35;;;16.00;99.90;;;;;;5053850;28;20032;-69
2022/10/29 04:53:49;;;;;;;18.65;5.53;;;16.10;99.90;;;;;;5053041;28;20024;-69
2022/10/29 04:56:15;;;;;;;19.23;6.05;;;16.20;99.90;;;;;;5053337;28;20037;-69
2022/10/29 04:58:41;;;;;;;17.73;6.32;;;16.30;99.90;;;;;;5053926;28;20493;-70
2022/10/29 05:01:07;;;;;;;14.80;5.85;;;16.20;99.90;;;;;;5052953;28;20060;-69
2022/10/29 05:03:33;;;;;;;16.40;5.90;;;16.20;99.90;;;;;;5054152;28;20063;-70
2022/10/29 05:06:05;;;;;;;20.70;6.13;;;16.10;99.90;;;;;;5053901;28;20079;-69
2022/10/29 05:08:32;;;;;;;21.98;6.43;;;16.20;99.90;;;;;;5053579;28;20021;-69
2022/10/29 05:11:01;;;;;;;17.80;5.57;;;16.10;99.90;;;;;;5053857;28;20067;-69
2022/10/29 05:13:27;;;;;;;27.95;6.22;;;16.10;99.90;;;;;;5052346;28;20412;-69
2022/10/29 05:15:53;;;;;;;15.27;6.13;;;16.20;99.90;;;;;;5053878;28;20029;-70
2022/10/29 05:18:18;;;;;;;25.98;6.35;;;16.20;99.90;;;;;;5053316;28;20453;-70
2022/10/29 05:20:44;;;;;;;26.45;6.82;;;16.40;99.90;;;;;;5053068;28;20044;-70
2022/10/29 05:23:11;;;;;;;25.42;8.00;;;16.50;99.90;;;;;;5053277;28;20078;-69
2022/10/29 05:25:38;;;;;;;16.95;6.70;;;16.50;99.90;;;;;;5053296;28;20105;-69
2022/10/29 05:28:08;;;;;;;18.63;6.43;;;16.60;99.90;;;;;;5053206;28;20412;-69
2022/10/29 05:30:34;;;;;;;15.88;7.53;;;16.60;99.90;;;;;;5053331;28;20032;-69
2022/10/29 05:32:59;;;;;;;23.50;7.57;;;16.60;99.90;;;;;;5052984;28;20388;-71
2022/10/29 05:35:25;;;;;;;25.20;7.30;;;16.70;99.90;;;;;;5053013;28;20514;-70
2022/10/29 05:37:53;;;;;;;17.20;7.25;;;16.70;99.90;;;;;;5053210;28;20051;-70
2022/10/29 05:40:22;;;;;;;20.38;7.20;;;16.70;99.90;;;;;;5046863;28;20025;-70
2022/10/29 05:42:48;;;;;;;20.13;8.32;;;16.60;99.90;;;;;;5050215;28;20028;-69
2022/10/29 05:45:14;;;;;;;28.27;8.10;;;16.50;99.90;;;;;;5055936;28;20025;-69
2022/10/29 05:47:41;;;;;;;26.95;8.38;;;16.40;99.90;;;;;;5056312;28;20432;-69
2022/10/29 05:50:07;;;;;;;25.55;7.32;;;16.40;99.90;;;;;;5055771;28;20476;-70
2022/10/29 05:52:33;;;;;;;24.02;9.35;;;16.40;99.90;;;;;;5057255;28;20029;-69
2022/10/29 05:54:58;;;;;;;23.05;10.48;;;16.30;99.90;;;;;;5048486;28;20028;-69
2022/10/29 05:57:24;;;;;;;27.63;9.32;;;16.20;99.90;;;;;;5055692;28;20393;-69
2022/10/29 05:59:50;;;;;;;27.02;9.68;;;16.20;99.90;;;;;;5055153;28;20066;-69
2022/10/29 06:02:16;;;;;;;31.50;10.80;;;16.10;99.90;;;;;;5052483;28;20473;-69
2022/10/29 06:04:41;;;;;;;31.50;10.13;;;16.20;99.90;;;;;;5061389;28;20027;-69
2022/10/29 06:07:07;;;;;;;25.05;9.40;;;16.10;99.90;;;;;;5063483;28;20029;-69
2022/10/29 06:09:33;;;;;;;25.38;9.65;;;16.10;99.90;;;;;;5059396;28;20052;-69
2022/10/29 06:11:58;;;;;;;29.20;10.20;;;16.00;99.90;;;;;;5056955;28;20111;-69
2022/10/29 06:14:24;;;;;;;30.10;10.85;;;16.10;99.90;;;;;;5052035;28;20079;-69
2022/10/29 06:16:50;;;;;;;34.13;10.90;;;16.00;99.90;;;;;;5063309;28;20032;-69
2022/10/29 06:19:16;;;;;;;28.73;10.93;;;16.00;99.90;;;;;;5060596;28;20461;-70
2022/10/29 06:21:41;;;;;;;34.20;11.15;;;16.00;99.90;;;;;;5061724;28;20077;-69
2022/10/29 06:24:09;;;;;;;34.03;10.98;;;16.20;99.90;;;;;;5054636;28;20043;-69
2022/10/29 06:26:36;;;;;;;23.58;10.48;;;16.20;99.90;;;;;;5050995;28;20029;-70
2022/10/29 06:29:02;;;;;;;28.85;11.20;;;16.20;99.90;;;;;;5044202;28;20033;-69
2022/10/29 06:31:28;;;;;;;34.58;11.52;;;16.20;99.90;;;;;;5059241;28;20036;-69
2022/10/29 06:33:54;;;;;;;27.15;10.75;;;16.20;99.90;;;;;;5060122;28;20024;-69
2022/10/29 06:36:20;;;;;;;31.27;11.52;;;16.10;99.90;;;;;;5055842;28;20029;-69
2022/10/29 06:38:46;;;;;;;25.40;10.10;;;16.10;99.90;;;;;;5050321;28;20028;-69
2022/10/29 06:41:12;;;;;;;25.02;9.98;;;16.10;99.90;;;;;;5048966;28;20030;-69
2022/10/29 06:43:38;;;;;;;26.00;10.93;;;16.20;99.90;;;;;;5046121;28;20108;-69
2022/10/29 06:46:04;;;;;;;27.02;11.52;;;16.30;99.90;;;;;;5047272;28;20489;-69
2022/10/29 06:48:29;;;;;;;31.52;10.35;;;16.30;99.90;;;;;;5050565;28;20017;-69
2022/10/29 06:50:58;;;;;;;31.40;10.38;;;16.30;99.90;;;;;;5050154;28;20037;-70
2022/10/29 06:53:24;;;;;;;24.77;10.02;;;16.20;99.90;;;;;;5054828;28;20013;-69
2022/10/29 06:55:50;;;;;;;34.67;10.15;;;16.20;99.90;;;;;;5056461;28;20068;-69
2022/10/29 06:58:18;;;;;;;26.35;10.63;;;16.30;99.90;;;;;;5055828;28;20477;-69
2022/10/29 07:00:45;;;;;;;27.67;10.32;;;16.20;99.90;;;;;;5055758;28;20037;-69
2022/10/29 07:03:14;;;;;;;31.27;10.77;;;16.30;99.90;;;;;;5056109;28;20055;-69
2022/10/29 07:05:40;;;;;;;25.20;10.07;;;16.20;99.90;;;;;;5055039;28;20520;-69
2022/10/29 07:08:06;;;;;;;29.15;10.80;;;16.20;99.90;;;;;;5056039;28;20068;-69
2022/10/29 07:10:33;;;;;;;23.08;10.13;;;16.10;99.90;;;;;;5055673;28;20087;-70
2022/10/29 07:12:59;;;;;;;36.45;11.68;;;16.10;99.90;;;;;;5054816;28;20461;-71
2022/10/29 07:15:26;;;;;;;31.13;11.18;;;16.20;99.90;;;;;;5054366;28;20064;-71
2022/10/29 07:17:57;;;;;;;30.10;10.80;;;16.30;99.90;;;;;;5055540;28;20105;-70
2022/10/29 07:20:22;;;;;;;29.55;10.85;;;16.60;99.90;;;;;;5054229;28;20033;-69
2022/10/29 07:22:48;;;;;;;25.80;10.35;;;16.60;99.90;;;;;;5055135;28;20021;-69
2022/10/29 07:25:14;;;;;;;26.00;10.80;;;16.70;99.90;;;;;;5055124;28;20120;-69
2022/10/29 07:27:40;;;;;;;27.50;10.98;;;16.70;99.90;;;;;;5054001;28;20072;-70
2022/10/29 07:30:06;;;;;;;25.30;9.40;;;16.60;99.90;;;;;;5054277;28;20809;-69
2022/10/29 07:32:32;;;;;;;27.48;9.70;;;16.60;99.90;;;;;;5053824;28;20455;-69
2022/10/29 07:34:57;;;;;;;26.95;9.75;;;16.60;99.90;;;;;;5054920;28;20033;-69
2022/10/29 07:37:23;;;;;;;27.67;10.05;;;16.70;99.90;;;;;;5054867;28;20040;-70
2022/10/29 07:39:48;;;;;;;38.58;10.23;;;16.70;99.90;;;;;;5047374;28;20439;-69
2022/10/29 07:42:14;;;;;;;31.20;9.98;;;16.70;99.90;;;;;;5047925;28;20029;-70
2022/10/29 07:44:40;;;;;;;30.73;10.13;;;16.80;99.90;;;;;;5056698;28;20024;-70
2022/10/29 07:47:06;;;;;;;29.13;10.55;;;16.90;99.90;;;;;;5054133;28;20544;-70
2022/10/29 07:49:31;;;;;;;34.42;11.07;;;16.80;99.90;;;;;;5054413;28;20021;-69
2022/10/29 07:51:57;;;;;;;28.48;9.43;;;17.00;99.90;;;;;;5063242;28;20029;-69
2022/10/29 07:54:23;;;;;;;28.27;9.00;;;16.80;99.90;;;;;;5061749;28;20036;-71
2022/10/29 07:56:51;;;;;;;23.98;9.98;;;16.60;99.90;;;;;;5058073;28;20104;-70
2022/10/29 07:59:18;;;;;;;35.28;9.93;;;16.60;99.90;;;;;;5046266;28;20606;-70
2022/10/29 08:01:44;;;;;;;27.90;9.52;;;16.60;99.90;;;;;;5053408;28;20048;-72
2022/10/29 08:04:10;;;;;;;29.60;10.32;;;16.70;99.90;;;;;;5061465;28;20025;-72
2022/10/29 08:06:36;;;;;;;31.58;10.02;;;16.70;99.90;;;;;;5062401;28;20108;-73
2022/10/29 08:09:02;;;;;;;24.27;9.57;;;16.80;99.90;;;;;;5054834;28;20116;-73
2022/10/29 08:11:31;;;;;;;24.10;10.60;;;16.80;99.90;;;;;;5055356;28;20029;-74
2022/10/29 08:13:57;;;;;;;27.02;10.15;;;16.80;99.90;;;;;;5063525;28;20029;-73
2022/10/29 08:16:23;;;;;;;33.00;10.18;;;16.80;99.90;;;;;;5062744;28;20020;-74
2022/10/29 08:18:49;;;;;;;23.10;10.32;;;16.90;99.90;;;;;;5059239;28;20032;-73
2022/10/29 08:21:15;;;;;;;21.55;9.40;;;17.10;99.90;;;;;;5050864;28;20025;-72
2022/10/29 08:23:41;;;;;;;25.85;9.60;;;17.10;99.90;;;;;;5048914;28;20029;-73
2022/10/29 08:26:06;;;;;;;21.75;8.45;;;17.10;99.90;;;;;;5045756;28;20563;-73
2022/10/29 08:28:32;;;;;;;20.48;8.38;;;17.40;99.90;;;;;;5040251;28;20021;-73
2022/10/29 08:30:58;;;;;;;21.88;9.15;;;17.30;99.90;;;;;;5035895;28;20477;-72
2022/10/29 08:33:24;;;;;;;32.95;8.68;;;17.40;99.90;;;;;;5048810;28;20362;-70
2022/10/29 08:35:49;;;;;;;27.05;9.32;;;17.50;99.90;;;;;;5049436;28;20033;-71
2022/10/29 08:38:15;;;;;;;32.75;9.65;;;17.40;99.90;;;;;;5035633;28;20533;-72
2022/10/29 08:40:47;;;;;;;25.58;9.07;;;17.40;99.90;;;;;;5034497;28;20045;-74
2022/10/29 08:43:23;;;;;;;25.42;9.40;;;17.30;99.90;;;;;;5036887;28;20587;-73
2022/10/29 08:45:53;;;;;;;28.60;9.05;;;17.40;99.90;;;;;;5043716;28;20021;-73
2022/10/29 08:48:34;;;;;;;24.20;8.68;;;17.30;99.90;;;;;;5039719;28;20033;-73
2022/10/29 08:51:24;;;;;;;36.13;8.68;;;17.20;99.90;;;;;;5035502;28;20051;-73
2022/10/29 08:53:53;;;;;;;25.80;9.07;;;17.20;99.90;;;;;;5047190;28;20034;-73
2022/10/29 08:56:24;;;;;;;21.42;9.02;;;17.30;99.90;;;;;;5039633;28;20542;-73
2022/10/29 08:59:09;;;;;;;19.15;7.60;;;17.40;99.90;;;;;;5032756;28;20064;-72
2022/10/29 09:01:36;;;;;;;23.92;8.93;;;17.50;99.90;;;;;;5035643;28;20083;-74
2022/10/29 09:04:11;;;;;;;27.23;8.20;;;17.50;99.90;;;;;;5047734;28;20018;-73
2022/10/29 09:07:14;;;;;;;25.77;7.63;;;17.70;99.90;;;;;;5053898;28;20040;-73
2022/10/29 09:10:06;;;;;;;21.83;7.10;;;17.70;99.90;;;;;;5045428;28;20025;-74
2022/10/29 09:13:06;;;;;;;19.83;6.95;;;18.00;99.90;;;;;;5052100;28;20040;-72
2022/10/29 09:15:58;;;;;;;18.63;6.20;;;18.30;99.90;;;;;;5050240;28;20086;-74
2022/10/29 09:18:28;;;;;;;24.27;8.02;;;18.30;99.90;;;;;;5052596;28;20033;-73
2022/10/29 09:21:21;;;;;;;31.42;8.10;;;18.30;99.90;;;;;;5051104;28;20032;-73
2022/10/29 09:23:49;;;;;;;23.42;7.72;;;18.30;99.90;;;;;;5056591;28;20016;-73
2022/10/29 09:27:01;;;;;;;24.55;8.80;;;18.20;99.90;;;;;;5054416;28;20033;-73
2022/10/29 09:29:46;;;;;;;26.75;8.15;;;18.10;99.90;;;;;;5010453;28;20060;-74
2022/10/29 09:32:20;;;;;;;22.63;8.25;;;18.20;99.90;;;;;;5053930;28;20026;-73
2022/10/29 09:34:51;;;;;;;26.40;8.07;;;18.40;99.90;;;;;;5053784;28;20041;-74
2022/10/29 09:37:22;;;;;;;24.30;8.68;;;18.40;99.90;;;;;;5067195;28;20067;-73
2022/10/29 09:39:48;;;;;;;31.47;7.90;;;18.60;99.90;;;;;;5060755;28;20469;-73
2022/10/29 09:42:20;;;;;;;16.00;7.07;;;19.00;99.90;;;;;;5053992;28;20318;-73
2022/10/29 09:44:55;;;;;;;25.23;7.72;;;19.40;99.90;;;;;;5050114;28;20035;-73
2022/10/29 09:47:49;;;;;;;29.27;8.55;;;19.90;99.90;;;;;;5048482;28;20507;-71
2022/10/29 09:50:34;;;;;;;20.80;7.40;;;20.20;99.90;;;;;;5055149;28;20554;-73
2022/10/29 09:53:01;;;;;;;25.75;7.22;;;20.30;99.90;;;;;;5059379;28;20124;-73
2022/10/29 09:55:35;;;;;;;20.73;6.68;;;20.70;99.90;;;;;;5053886;28;20013;-71
2022/10/29 09:58:01;;;;;;;22.30;7.25;;;20.90;99.90;;;;;;5031199;28;20172;-72
2022/10/29 10:00:29;;;;;;;23.75;6.53;;;21.20;99.90;;;;;;5060422;28;20116;-74
2022/10/29 10:03:36;;;;;;;24.90;6.03;;;21.70;99.90;;;;;;5061350;28;20171;-73
2022/10/29 10:06:07;;;;;;;19.02;6.45;;;21.40;99.90;;;;;;5045659;28;20045;-73
2022/10/29 10:08:34;;;;;;;24.97;5.33;;;21.60;99.90;;;;;;5053953;28;20025;-72
2022/10/29 10:11:07;;;;;;;17.38;5.35;;;21.80;99.90;;;;;;5061500;28;20020;-74
2022/10/29 10:13:37;;;;;;;31.63;5.65;;;22.00;99.90;;;;;;5043126;28;20377;-72
2022/10/29 10:16:05;;;;;;;23.92;6.80;;;22.30;99.90;;;;;;5046623;28;20123;-73
2022/10/29 10:18:30;;;;;;;18.38;5.75;;;22.70;99.90;;;;;;5048357;28;20028;-73
2022/10/29 10:21:04;;;;;;;17.90;5.05;;;22.70;99.90;;;;;;5059212;28;20049;-73
2022/10/29 10:23:51;;;;;;;21.23;5.38;;;22.90;99.90;;;;;;5056384;28;20032;-73
2022/10/29 10:26:38;;;;;;;15.73;5.03;;;22.80;99.90;;;;;;5049310;28;20480;-74
2022/10/29 10:29:08;;;;;;;19.77;6.07;;;22.80;99.90;;;;;;5048456;28;20067;-73
2022/10/29 10:31:34;;;;;;;23.30;6.68;;;22.70;99.90;;;;;;5059240;28;20020;-73
2022/10/29 10:34:14;;;;;;;19.48;5.72;;;23.20;99.90;;;;;;5064167;28;20016;-73
2022/10/29 10:36:43;;;;;;;17.13;5.35;;;23.30;99.90;;;;;;5045458;28;20052;-74
2022/10/29 10:39:25;;;;;;;22.48;6.18;;;23.30;99.90;;;;;;5043699;28;20091;-74
2022/10/29 10:41:51;;;;;;;18.65;5.03;;;23.90;99.90;;;;;;5045132;28;20037;-73
2022/10/29 10:44:20;;;;;;;24.88;5.93;;;23.30;99.90;;;;;;5044968;28;20492;-73
2022/10/29 10:46:47;;;;;;;22.17;5.82;;;23.40;99.90;;;;;;5050680;28;20044;-71
2022/10/29 10:49:28;;;;;;;14.73;4.90;;;24.00;99.90;;;;;;5047144;28;20010;-72
2022/10/29 10:51:55;;;;;;;21.63;5.18;;;24.30;99.90;;;;;;5051997;28;20025;-73
2022/10/29 10:54:27;;;;;;;19.45;5.20;;;24.40;99.90;;;;;;5052131;28;20462;-73
2022/10/29 10:57:01;;;;;;;16.45;5.05;;;24.40;99.90;;;;;;5043397;28;20041;-69
2022/10/29 11:00:00;;;;;;;17.80;5.50;;;24.70;99.90;;;;;;5040163;28;20053;-71
2022/10/29 11:02:31;;;;;;;13.85;4.90;;;24.70;99.90;;;;;;5043794;28;20489;-69
2022/10/29 11:05:15;;;;;;;24.13;5.53;;;24.40;99.90;;;;;;5032897;28;20137;-71
2022/10/29 11:08:00;;;;;;;18.20;5.20;;;24.20;99.90;;;;;;5032073;28;20026;-72
2022/10/29 11:10:48;;;;;;;15.57;5.03;;;24.40;99.90;;;;;;5036957;28;20027;-70
2022/10/29 11:13:23;;;;;;;16.48;5.15;;;24.60;99.90;;;;;;5032267;28;20041;-72
2022/10/29 11:16:03;;;;;;;26.13;5.32;;;24.90;99.90;;;;;;5045682;28;20068;-72
2022/10/29 11:18:32;;;;;;;18.52;5.30;;;25.30;99.90;;;;;;5039352;28;20029;-71
2022/10/29 11:21:18;;;;;;;18.75;5.35;;;26.00;99.90;;;;;;5033619;28;20037;-72
2022/10/29 11:24:09;;;;;;;16.05;5.60;;;25.80;99.90;;;;;;5035276;28;20064;-73
2022/10/29 11:26:53;;;;;;;21.00;5.05;;;25.80;99.90;;;;;;5039968;28;20045;-71
2022/10/29 11:29:56;;;;;;;18.55;4.90;;;26.20;99.90;;;;;;5035248;28;20433;-70
2022/10/29 11:32:59;;;;;;;17.48;5.00;;;26.30;99.90;;;;;;5034308;28;20045;-68
2022/10/29 11:35:39;;;;;;;20.45;5.07;;;26.40;99.90;;;;;;5041910;28;20048;-69
2022/10/29 11:38:23;;;;;;;21.15;5.78;;;26.60;99.90;;;;;;5051779;28;20055;-69
2022/10/29 11:41:03;;;;;;;23.02;4.38;;;26.70;99.90;;;;;;5055218;28;20032;-69
2022/10/29 11:43:30;;;;;;;21.33;5.35;;;27.30;99.90;;;;;;5054885;28;20059;-69
2022/10/29 11:46:21;;;;;;;12.63;4.78;;;27.50;99.60;;;;;;5055196;28;20040;-73
2022/10/29 11:49:22;;;;;;;12.55;4.22;;;27.20;99.40;;;;;;5055075;28;20025;-74
2022/10/29 11:52:00;;;;;;;20.58;4.82;;;27.50;98.90;;;;;;5047671;28;20052;-74
2022/10/29 11:54:48;;;;;;;18.40;4.82;;;27.80;98.90;;;;;;5055204;28;20040;-74
2022/10/29 11:57:24;;;;;;;25.95;5.13;;;28.20;98.80;;;;;;5054888;28;20037;-74
2022/10/29 12:00:17;;;;;;;21.80;4.97;;;28.30;97.70;;;;;;5055337;28;20029;-74
2022/10/29 12:03:03;;;;;;;18.75;4.38;;;28.00;98.00;;;;;;5045531;28;20025;-73
2022/10/29 12:05:44;;;;;;;20.73;4.95;;;27.70;98.40;;;;;;5054649;28;20025;-74
2022/10/29 12:08:13;;;;;;;17.00;4.93;;;28.20;97.30;;;;;;5053646;28;20044;-74
2022/10/29 12:10:54;;;;;;;18.30;4.95;;;27.90;97.00;;;;;;5054369;28;20052;-75
2022/10/29 12:13:44;;;;;;;16.73;4.15;;;28.40;97.30;;;;;;5054564;28;20392;-74
2022/10/29 12:16:41;;;;;;;25.00;4.85;;;28.40;97.40;;;;;;5053875;28;20029;-75
2022/10/29 12:19:20;;;;;;;22.08;5.25;;;29.30;96.90;;;;;;5053241;28;20485;-75
2022/10/29 12:22:15;;;;;;;23.40;5.18;;;29.20;96.20;;;;;;5053607;28;20096;-74
2022/10/29 12:25:05;;;;;;;16.77;4.28;;;29.70;95.60;;;;;;5042689;28;20108;-69
2022/10/29 12:28:18;;;;;;;26.85;4.95;;;29.80;94.80;;;;;;5054277;28;20028;-74
2022/10/29 12:30:57;;;;;;;18.55;4.38;;;29.10;95.60;;;;;;5039710;28;20094;-73
2022/10/29 12:33:49;;;;;;;22.58;4.55;;;28.80;96.20;;;;;;5049997;28;20021;-74
2022/10/29 12:36:33;;;;;;;30.45;4.97;;;27.90;96.70;;;;;;5037606;28;20056;-74
2022/10/29 12:39:00;;;;;;;19.02;4.75;;;27.70;97.50;;;;;;5054625;28;20052;-74
2022/10/29 12:41:33;;;;;;;18.17;4.78;;;27.10;98.40;;;;;;5054092;28;20032;-73
2022/10/29 12:44:25;;;;;;;20.42;4.25;;;26.70;99.40;;;;;;5052639;28;20033;-74
2022/10/29 12:47:04;;;;;;;21.65;4.45;;;26.50;99.70;;;;;;5054057;28;20115;-71
2022/10/29 12:49:57;;;;;;;23.38;5.32;;;26.00;99.90;;;;;;5052185;28;20530;-73
2022/10/29 12:52:40;;;;;;;17.15;4.50;;;26.00;99.90;;;;;;5049838;28;20366;-72
2022/10/29 12:55:10;;;;;;;21.17;4.97;;;26.30;99.90;;;;;;5035507;28;20465;-73
2022/10/29 12:57:36;;;;;;;20.90;4.72;;;26.20;99.90;;;;;;5033969;28;20393;-69
2022/10/29 13:00:31;;;;;;;18.35;4.35;;;26.20;99.90;;;;;;5038588;28;20025;-73